Time;durP1;ratioP1;P1;durP2;ratioP2;P2;SDS_P1;SDS_P2;PMS_P1;PMS_P2;Temp;Humidity;BMP_temperature;BMP_pressure;BME280_temperature;BME280_humidity;BME280_pressure;Samples;Min_cycle;Max_cycle;Signal;HPM_P1;HPM_P2
2023/01/31 00:00:03;;;;;;;30.23;4.10;;;4.30;99.90;;;;;;5004656;28;20033;-74
2023/01/31 00:02:30;;;;;;;29.02;4.65;;;4.20;99.90;;;;;;5004991;28;20030;-73
2023/01/31 00:04:55;;;;;;;27.67;4.15;;;4.20;99.90;;;;;;5003437;28;20046;-73
2023/01/31 00:07:21;;;;;;;29.23;4.30;;;4.20;99.90;;;;;;5003449;28;20029;-73
2023/01/31 00:09:46;;;;;;;34.80;3.92;;;4.20;99.90;;;;;;5003285;28;20034;-73
2023/01/31 00:12:12;;;;;;;27.27;3.78;;;4.20;99.90;;;;;;5004524;28;20032;-72
2023/01/31 00:14:37;;;;;;;22.98;3.50;;;4.20;99.90;;;;;;5004537;28;20030;-73
2023/01/31 00:17:03;;;;;;;25.50;3.70;;;4.20;99.90;;;;;;5004355;28;20049;-73
2023/01/31 00:19:28;;;;;;;20.75;3.75;;;4.10;99.90;;;;;;5003135;28;20022;-72
2023/01/31 00:21:54;;;;;;;32.78;3.92;;;4.10;99.90;;;;;;5004480;28;20589;-72
2023/01/31 00:24:19;;;;;;;24.23;3.88;;;4.10;99.90;;;;;;5003063;28;20196;-73
2023/01/31 00:26:47;;;;;;;30.23;3.78;;;4.00;99.90;;;;;;5004217;28;20034;-72
2023/01/31 00:29:12;;;;;;;29.45;3.60;;;4.00;99.90;;;;;;5002689;28;20080;-71
2023/01/31 00:31:38;;;;;;;34.13;4.20;;;4.00;99.90;;;;;;5002813;28;20032;-73
2023/01/31 00:34:04;;;;;;;27.70;4.10;;;4.00;99.90;;;;;;5004159;28;20037;-74
2023/01/31 00:36:32;;;;;;;30.35;3.55;;;4.00;99.90;;;;;;5002820;28;20034;-73
2023/01/31 00:38:59;;;;;;;26.08;3.83;;;3.90;99.90;;;;;;5004217;28;20031;-72
2023/01/31 00:41:27;;;;;;;20.42;3.58;;;3.90;99.90;;;;;;5004253;28;20126;-73
2023/01/31 00:43:52;;;;;;;27.00;3.42;;;3.90;99.90;;;;;;5002608;28;20147;-73
2023/01/31 00:46:22;;;;;;;29.65;3.30;;;3.90;99.90;;;;;;5001616;28;20057;-74
2023/01/31 00:48:48;;;;;;;33.13;3.67;;;3.90;99.90;;;;;;5001662;28;20060;-72
2023/01/31 00:51:15;;;;;;;25.58;3.05;;;3.90;99.90;;;;;;5001805;28;20129;-74
2023/01/31 00:53:40;;;;;;;19.02;2.80;;;4.00;99.90;;;;;;5003929;28;20030;-73
2023/01/31 00:56:09;;;;;;;26.05;3.22;;;4.00;99.90;;;;;;5003797;28;20054;-75
2023/01/31 00:58:35;;;;;;;24.00;3.47;;;4.10;99.90;;;;;;5003811;28;20114;-73
2023/01/31 01:01:16;;;;;;;22.55;3.58;;;4.20;99.90;;;;;;5003872;28;20100;-73
2023/01/31 01:03:43;;;;;;;22.92;4.00;;;4.20;99.90;;;;;;5002027;28;20066;-73
2023/01/31 01:06:10;;;;;;;27.95;3.97;;;4.30;99.90;;;;;;5003403;28;20026;-73
2023/01/31 01:08:38;;;;;;;22.65;3.38;;;4.30;99.90;;;;;;5003782;28;20052;-74
2023/01/31 01:11:13;;;;;;;40.75;4.30;;;4.30;99.90;;;;;;5003792;28;20121;-73
2023/01/31 01:13:39;;;;;;;23.00;3.67;;;4.20;99.90;;;;;;5003898;28;20084;-73
2023/01/31 01:16:11;;;;;;;27.38;3.42;;;4.20;99.90;;;;;;5002247;28;20058;-73
2023/01/31 01:18:37;;;;;;;22.20;3.20;;;4.20;99.90;;;;;;5002344;28;20036;-74
2023/01/31 01:21:12;;;;;;;32.67;4.28;;;4.20;99.90;;;;;;5003518;28;20105;-73
2023/01/31 01:23:39;;;;;;;33.90;4.70;;;4.20;99.90;;;;;;5002296;28;20042;-74
2023/01/31 01:26:05;;;;;;;30.35;3.25;;;4.20;99.90;;;;;;5003539;28;20031;-73
2023/01/31 01:28:34;;;;;;;25.10;3.33;;;4.20;99.90;;;;;;5003422;28;20471;-80
2023/01/31 01:31:05;;;;;;;17.17;3.05;;;4.20;99.90;;;;;;5002157;28;20030;-72
2023/01/31 01:33:31;;;;;;;28.67;3.88;;;4.20;99.90;;;;;;5004130;28;20438;-73
2023/01/31 01:36:04;;;;;;;18.92;2.80;;;4.20;99.90;;;;;;5002370;28;20034;-73
2023/01/31 01:38:32;;;;;;;21.95;3.40;;;4.20;99.90;;;;;;5003787;28;20094;-75
2023/01/31 01:40:58;;;;;;;20.48;3.53;;;4.20;99.90;;;;;;5002449;28;20034;-75
2023/01/31 01:43:39;;;;;;;29.70;3.60;;;4.20;99.90;;;;;;5001978;28;20568;-75
2023/01/31 01:46:04;;;;;;;31.85;3.97;;;4.20;99.90;;;;;;5003503;28;20026;-75
2023/01/31 01:48:30;;;;;;;25.05;3.60;;;4.10;99.90;;;;;;5003546;28;20041;-74
2023/01/31 01:50:57;;;;;;;27.23;3.58;;;4.10;99.90;;;;;;5003863;28;20035;-73
2023/01/31 01:53:26;;;;;;;22.45;3.47;;;4.20;99.90;;;;;;5003275;28;20027;-73
2023/01/31 01:56:02;;;;;;;22.55;2.92;;;4.20;99.90;;;;;;5001756;28;20084;-73
2023/01/31 01:58:36;;;;;;;18.10;3.00;;;4.10;99.90;;;;;;5005553;28;20434;-73
2023/01/31 02:01:07;;;;;;;25.13;2.92;;;4.10;99.90;;;;;;5007232;28;20557;-73
2023/01/31 02:03:33;;;;;;;21.98;3.33;;;4.10;99.90;;;;;;5006545;28;20058;-73
2023/01/31 02:06:03;;;;;;;21.30;3.17;;;4.10;99.90;;;;;;5005687;28;20026;-72
2023/01/31 02:08:33;;;;;;;27.17;3.25;;;4.10;99.90;;;;;;5004954;28;20352;-73
2023/01/31 02:11:06;;;;;;;23.85;3.30;;;4.10;99.90;;;;;;5006922;28;20225;-75
2023/01/31 02:13:33;;;;;;;24.30;2.80;;;4.00;99.90;;;;;;5005169;28;20023;-74
2023/01/31 02:15:58;;;;;;;26.27;2.90;;;4.10;99.90;;;;;;5006547;28;20031;-74
2023/01/31 02:18:25;;;;;;;23.02;3.25;;;4.10;99.90;;;;;;5001498;28;20049;-74
2023/01/31 02:21:15;;;;;;;29.60;2.78;;;4.10;99.90;;;;;;5017764;28;20034;-74
2023/01/31 02:23:53;;;;;;;22.17;2.65;;;4.10;99.90;;;;;;4994495;28;20038;-73
2023/01/31 02:26:48;;;;;;;18.95;3.13;;;4.20;99.90;;;;;;4994629;28;20437;-75
2023/01/31 02:29:20;;;;;;;28.98;3.25;;;4.30;99.90;;;;;;5000875;28;20120;-73
2023/01/31 02:32:09;;;;;;;31.08;2.88;;;4.20;99.90;;;;;;4994984;28;20018;-74
2023/01/31 02:34:52;;;;;;;22.20;3.08;;;4.30;99.90;;;;;;4996245;28;20030;-74
2023/01/31 02:37:40;;;;;;;24.83;3.72;;;4.30;99.90;;;;;;4996582;28;20078;-72
2023/01/31 02:40:36;;;;;;;28.27;3.20;;;4.20;99.90;;;;;;4995298;28;20041;-73
2023/01/31 02:43:17;;;;;;;19.23;3.38;;;4.20;99.90;;;;;;5009614;28;20051;-76
2023/01/31 02:45:46;;;;;;;22.92;3.38;;;4.30;99.90;;;;;;5018023;28;20033;-72
2023/01/31 02:48:41;;;;;;;33.25;3.13;;;4.30;99.90;;;;;;4992318;28;20094;-73
2023/01/31 02:51:14;;;;;;;26.67;2.92;;;4.20;99.90;;;;;;4994005;28;20031;-74
2023/01/31 02:53:44;;;;;;;26.88;3.63;;;4.20;99.90;;;;;;4993567;28;20431;-75
2023/01/31 02:56:18;;;;;;;28.30;3.65;;;4.20;99.90;;;;;;4992435;28;20082;-75
2023/01/31 02:59:02;;;;;;;26.33;3.53;;;4.20;99.90;;;;;;4994833;28;20015;-73
2023/01/31 03:01:32;;;;;;;33.53;4.53;;;4.20;99.90;;;;;;4993947;28;20038;-71
2023/01/31 03:04:06;;;;;;;35.53;3.60;;;4.20;99.90;;;;;;4992095;28;20321;-73
2023/01/31 03:06:34;;;;;;;37.00;4.40;;;4.20;99.90;;;;;;4997146;28;20126;-74
2023/01/31 03:09:35;;;;;;;31.48;3.92;;;4.20;99.90;;;;;;4994263;28;20073;-75
2023/01/31 03:12:19;;;;;;;24.13;3.83;;;4.20;99.90;;;;;;4993841;28;20035;-77
2023/01/31 03:14:48;;;;;;;20.23;2.83;;;4.20;99.90;;;;;;4992757;28;20471;-75
2023/01/31 03:17:43;;;;;;;42.85;4.45;;;4.20;99.90;;;;;;4995349;28;20023;-73
2023/01/31 03:20:16;;;;;;;35.70;3.88;;;4.30;99.90;;;;;;5018159;28;20057;-75
2023/01/31 03:22:53;;;;;;;27.65;4.00;;;4.30;99.90;;;;;;4993589;28;20030;-73
2023/01/31 03:25:22;;;;;;;38.25;4.63;;;4.30;99.90;;;;;;4995360;28;20056;-74
2023/01/31 03:27:54;;;;;;;31.42;4.10;;;4.30;99.90;;;;;;4998210;28;20075;-72
2023/01/31 03:30:43;;;;;;;35.58;4.50;;;4.30;99.90;;;;;;4992535;28;20528;-75
2023/01/31 03:33:34;;;;;;;29.70;4.07;;;4.30;99.90;;;;;;5015441;28;20022;-73
2023/01/31 03:36:17;;;;;;;34.55;3.90;;;4.30;99.90;;;;;;4991692;28;20034;-74
2023/01/31 03:39:04;;;;;;;39.90;4.00;;;4.20;99.90;;;;;;5016921;28;20034;-72
2023/01/31 03:41:54;;;;;;;26.88;3.47;;;4.20;99.90;;;;;;4993416;28;20034;-74
2023/01/31 03:44:41;;;;;;;37.58;4.28;;;4.20;99.90;;;;;;4990749;28;20048;-74
2023/01/31 03:47:21;;;;;;;42.50;4.13;;;4.20;99.90;;;;;;4999535;28;20041;-74
2023/01/31 03:49:50;;;;;;;32.47;3.53;;;4.10;99.90;;;;;;5002660;28;20041;-75
2023/01/31 03:52:22;;;;;;;36.65;4.70;;;4.10;99.90;;;;;;5002941;28;20027;-73
2023/01/31 03:54:53;;;;;;;32.90;4.30;;;4.10;99.90;;;;;;5004829;28;20023;-77
2023/01/31 03:57:31;;;;;;;34.05;3.80;;;4.10;99.90;;;;;;5003007;28;20046;-75
2023/01/31 03:59:59;;;;;;;38.20;3.80;;;4.00;99.90;;;;;;5004924;28;20030;-74
2023/01/31 04:02:34;;;;;;;37.38;4.10;;;4.00;99.90;;;;;;5004843;28;20081;-73
2023/01/31 04:05:17;;;;;;;34.50;4.60;;;3.90;99.90;;;;;;5004772;28;20038;-74
2023/01/31 04:07:43;;;;;;;29.10;3.95;;;3.90;99.90;;;;;;5004473;28;20153;-80
2023/01/31 04:10:14;;;;;;;24.73;3.40;;;3.90;99.90;;;;;;5004254;28;20027;-73
2023/01/31 04:12:40;;;;;;;31.55;3.83;;;3.90;99.90;;;;;;5004721;28;20035;-74
2023/01/31 04:15:06;;;;;;;24.80;3.17;;;3.90;99.90;;;;;;5003147;28;20035;-73
2023/01/31 04:17:32;;;;;;;25.45;3.45;;;3.90;99.90;;;;;;5004398;28;20062;-73
2023/01/31 04:19:58;;;;;;;29.17;3.63;;;3.90;99.90;;;;;;5003573;28;20074;-77
2023/01/31 04:22:24;;;;;;;34.97;3.08;;;3.90;99.90;;;;;;5003967;28;20030;-75
2023/01/31 04:24:49;;;;;;;37.65;4.40;;;3.90;99.90;;;;;;5002720;28;20054;-74
2023/01/31 04:27:15;;;;;;;31.60;3.55;;;3.90;99.90;;;;;;5003668;28;20030;-73
2023/01/31 04:29:40;;;;;;;37.67;4.03;;;3.90;99.90;;;;;;5004224;28;20038;-74
2023/01/31 04:32:06;;;;;;;37.45;4.47;;;3.90;99.90;;;;;;5004218;28;20041;-77
2023/01/31 04:34:31;;;;;;;32.80;3.63;;;3.90;99.90;;;;;;5002945;28;20026;-75
2023/01/31 04:36:57;;;;;;;17.77;3.20;;;3.90;99.90;;;;;;5002831;28;20034;-77
2023/01/31 04:39:23;;;;;;;26.75;4.57;;;3.90;99.90;;;;;;5002348;28;20086;-74
2023/01/31 04:41:48;;;;;;;31.77;4.05;;;3.90;99.90;;;;;;5004346;28;20038;-75
2023/01/31 04:44:15;;;;;;;21.83;3.22;;;3.90;99.90;;;;;;5002563;28;20073;-76
2023/01/31 04:46:41;;;;;;;18.95;2.80;;;3.90;99.90;;;;;;5004139;28;20026;-75
2023/01/31 04:49:07;;;;;;;36.17;4.00;;;3.90;99.90;;;;;;5003451;28;20037;-74
2023/01/31 04:51:32;;;;;;;37.55;4.32;;;3.90;99.90;;;;;;5002992;28;20102;-74
2023/01/31 04:53:58;;;;;;;27.60;2.78;;;3.90;99.90;;;;;;5002935;28;20031;-74
2023/01/31 04:56:24;;;;;;;30.35;3.80;;;3.90;99.90;;;;;;5002563;28;20057;-73
2023/01/31 04:58:49;;;;;;;19.30;3.30;;;3.90;99.90;;;;;;5002583;28;20046;-73
2023/01/31 05:01:15;;;;;;;30.45;3.05;;;3.90;99.90;;;;;;5003938;28;20034;-72
2023/01/31 05:03:40;;;;;;;24.48;3.28;;;4.00;99.90;;;;;;5002362;28;20135;-73
2023/01/31 05:06:07;;;;;;;28.60;2.83;;;4.00;99.90;;;;;;5003562;28;20071;-75
2023/01/31 05:08:33;;;;;;;27.95;3.47;;;4.00;99.90;;;;;;5003972;28;20432;-73
2023/01/31 05:11:02;;;;;;;34.38;3.58;;;4.00;99.90;;;;;;5002704;28;20054;-76
2023/01/31 05:13:31;;;;;;;26.10;3.13;;;4.00;99.90;;;;;;5003659;28;20525;-75
2023/01/31 05:15:57;;;;;;;20.10;3.30;;;4.00;99.90;;;;;;5002438;28;20037;-75
2023/01/31 05:18:24;;;;;;;16.38;2.25;;;4.10;99.90;;;;;;5003840;28;20054;-75
2023/01/31 05:20:50;;;;;;;21.50;2.88;;;4.00;99.90;;;;;;5003623;28;20058;-78
2023/01/31 05:23:18;;;;;;;25.50;2.83;;;4.00;99.90;;;;;;5002346;28;20049;-78
2023/01/31 05:25:48;;;;;;;22.65;3.15;;;4.00;99.90;;;;;;5002003;28;20053;-74
2023/01/31 05:28:13;;;;;;;23.40;3.13;;;4.00;99.90;;;;;;5003628;28;20041;-76
2023/01/31 05:30:39;;;;;;;24.60;3.45;;;4.00;99.90;;;;;;5003725;28;20034;-74
2023/01/31 05:33:04;;;;;;;25.73;2.28;;;4.00;99.90;;;;;;5006217;28;20045;-72
2023/01/31 05:35:30;;;;;;;24.38;3.35;;;4.00;99.90;;;;;;5006586;28;20033;-76
2023/01/31 05:37:56;;;;;;;17.58;2.90;;;4.00;99.90;;;;;;5006553;28;20019;-76
2023/01/31 05:40:22;;;;;;;15.27;2.75;;;4.00;99.90;;;;;;5005534;28;20469;-73
2023/01/31 05:42:55;;;;;;;27.42;3.67;;;4.00;99.90;;;;;;5007131;28;20080;-74
2023/01/31 05:45:21;;;;;;;25.42;2.90;;;4.00;99.90;;;;;;5007280;28;20054;-76
2023/01/31 05:47:47;;;;;;;27.38;3.10;;;4.10;99.90;;;;;;5007921;28;20387;-76
2023/01/31 05:50:12;;;;;;;24.60;3.28;;;4.00;99.90;;;;;;5005529;28;20050;-73
2023/01/31 05:52:38;;;;;;;23.27;3.17;;;4.10;99.90;;;;;;5007015;28;20034;-75
2023/01/31 05:55:04;;;;;;;26.25;3.33;;;4.00;99.90;;;;;;5007132;28;20053;-74
2023/01/31 05:57:30;;;;;;;27.48;2.83;;;4.10;99.90;;;;;;5005341;28;20073;-75
2023/01/31 05:59:55;;;;;;;22.90;2.97;;;4.10;99.90;;;;;;5002199;28;20116;-77
2023/01/31 06:02:21;;;;;;;29.02;4.20;;;4.10;99.90;;;;;;5004519;28;20042;-73
2023/01/31 06:04:48;;;;;;;25.48;3.25;;;4.10;99.90;;;;;;5004636;28;20083;-73
2023/01/31 06:07:14;;;;;;;19.35;2.90;;;4.10;99.90;;;;;;5004665;28;20045;-72
2023/01/31 06:09:40;;;;;;;23.50;3.38;;;4.10;99.90;;;;;;5006288;28;20124;-72
2023/01/31 06:12:11;;;;;;;19.45;3.22;;;4.10;99.90;;;;;;5006868;28;20057;-72
2023/01/31 06:14:36;;;;;;;11.00;1.92;;;4.10;99.90;;;;;;5005395;28;20065;-73
2023/01/31 06:17:02;;;;;;;20.05;3.65;;;4.10;99.90;;;;;;5006508;28;20026;-73
2023/01/31 06:19:28;;;;;;;18.83;2.72;;;4.20;99.90;;;;;;4999084;28;20022;-72
2023/01/31 06:21:54;;;;;;;21.17;3.25;;;4.20;99.90;;;;;;5003193;28;20049;-74
2023/01/31 06:24:20;;;;;;;27.80;3.50;;;4.30;99.90;;;;;;5006373;28;20042;-75
2023/01/31 06:26:46;;;;;;;26.27;3.78;;;4.20;99.90;;;;;;5004229;28;20042;-73
2023/01/31 06:29:11;;;;;;;24.02;3.50;;;4.20;99.90;;;;;;5005223;28;20026;-76
2023/01/31 06:31:37;;;;;;;22.50;3.60;;;4.20;99.90;;;;;;5004337;28;20035;-77
2023/01/31 06:34:03;;;;;;;24.52;4.25;;;4.20;99.90;;;;;;5006416;28;20110;-74
2023/01/31 06:36:32;;;;;;;21.52;4.10;;;4.20;99.90;;;;;;5006180;28;20022;-73
2023/01/31 06:38:58;;;;;;;25.63;4.55;;;4.30;99.90;;;;;;5006317;28;20027;-73
2023/01/31 06:41:24;;;;;;;24.40;4.38;;;4.20;99.90;;;;;;5005661;28;20056;-72
2023/01/31 06:43:50;;;;;;;30.65;4.90;;;4.30;99.90;;;;;;4999118;28;20069;-73
2023/01/31 06:46:16;;;;;;;25.17;4.75;;;4.40;99.90;;;;;;4993308;28;20031;-75
2023/01/31 06:48:42;;;;;;;24.52;4.40;;;4.30;99.90;;;;;;4990258;28;20035;-71
2023/01/31 06:51:11;;;;;;;28.70;4.93;;;4.40;99.90;;;;;;4991829;28;20034;-73
2023/01/31 06:53:37;;;;;;;30.40;4.53;;;4.40;99.90;;;;;;4995390;28;20460;-71
2023/01/31 06:56:03;;;;;;;33.88;5.18;;;4.50;99.90;;;;;;4998522;28;20052;-71
2023/01/31 06:58:28;;;;;;;29.45;4.82;;;4.40;99.90;;;;;;4996135;28;20073;-74
2023/01/31 07:00:54;;;;;;;35.88;5.43;;;4.40;99.90;;;;;;4997087;28;20112;-73
2023/01/31 07:03:19;;;;;;;29.85;5.75;;;4.40;99.90;;;;;;5004496;28;20158;-74
2023/01/31 07:05:46;;;;;;;31.58;6.03;;;4.40;99.90;;;;;;5001850;28;20026;-73
2023/01/31 07:08:21;;;;;;;37.95;6.00;;;4.50;99.90;;;;;;5004975;28;20027;-76
2023/01/31 07:10:47;;;;;;;37.20;5.70;;;4.50;99.90;;;;;;5004092;28;20022;-72
2023/01/31 07:13:13;;;;;;;26.42;5.78;;;4.60;99.90;;;;;;5004337;28;20310;-72
2023/01/31 07:15:39;;;;;;;40.05;7.03;;;4.50;99.90;;;;;;5005718;28;20452;-72
2023/01/31 07:18:05;;;;;;;34.30;6.25;;;4.60;99.90;;;;;;5004307;28;20038;-75
2023/01/31 07:20:31;;;;;;;31.02;6.53;;;4.60;99.90;;;;;;5005863;28;20080;-74
2023/01/31 07:22:57;;;;;;;42.38;7.18;;;4.60;99.90;;;;;;5003983;28;20038;-71
2023/01/31 07:25:27;;;;;;;44.40;7.38;;;4.70;99.90;;;;;;5003902;28;20030;-74
2023/01/31 07:27:52;;;;;;;31.27;6.43;;;4.60;99.90;;;;;;5003217;28;20124;-74
2023/01/31 07:30:18;;;;;;;36.78;7.25;;;4.70;99.90;;;;;;5004649;28;20495;-77
2023/01/31 07:32:44;;;;;;;35.88;7.28;;;4.70;99.90;;;;;;5004653;28;20031;-74
2023/01/31 07:35:10;;;;;;;26.25;6.60;;;4.70;99.90;;;;;;5003172;28;20049;-74
2023/01/31 07:37:36;;;;;;;28.13;6.72;;;4.70;99.90;;;;;;5003673;28;20038;-72
2023/01/31 07:40:03;;;;;;;26.25;6.25;;;4.80;99.90;;;;;;5003661;28;20029;-73
2023/01/31 07:42:29;;;;;;;33.13;7.25;;;4.80;99.90;;;;;;5004796;28;20053;-72
2023/01/31 07:44:54;;;;;;;27.65;7.07;;;4.80;99.90;;;;;;5004851;28;20116;-75
2023/01/31 07:47:20;;;;;;;41.53;8.55;;;4.80;99.90;;;;;;5003219;28;20043;-73
2023/01/31 07:49:47;;;;;;;26.88;6.50;;;4.80;99.90;;;;;;5003101;28;20030;-74
2023/01/31 07:52:12;;;;;;;34.17;6.75;;;4.80;99.90;;;;;;5002861;28;20026;-77
2023/01/31 07:54:38;;;;;;;41.80;7.60;;;4.80;99.90;;;;;;5002321;28;20022;-75
2023/01/31 07:57:03;;;;;;;27.45;7.10;;;4.80;99.90;;;;;;5002894;28;20178;-75
2023/01/31 07:59:29;;;;;;;35.55;7.18;;;4.80;99.90;;;;;;5000880;28;20034;-79
2023/01/31 08:04:39;;;;;;;32.67;7.40;;;4.90;99.90;;;;;;4999053;28;20093;-76
2023/01/31 08:07:05;;;;;;;36.50;7.65;;;4.90;99.90;;;;;;4997903;28;20038;-74
2023/01/31 08:09:31;;;;;;;47.83;7.85;;;4.90;99.90;;;;;;4995029;28;20377;-74
2023/01/31 08:11:57;;;;;;;26.77;7.25;;;4.90;99.90;;;;;;4995286;28;20023;-74
2023/01/31 08:14:24;;;;;;;31.98;7.55;;;5.00;99.90;;;;;;4992637;28;20035;-73
2023/01/31 08:16:54;;;;;;;32.60;8.23;;;5.00;99.90;;;;;;4984872;28;20036;-71
2023/01/31 08:19:21;;;;;;;25.88;7.38;;;5.10;99.90;;;;;;5004144;28;20372;-76
2023/01/31 08:21:47;;;;;;;43.40;9.50;;;5.20;99.90;;;;;;5004307;28;20026;-76
2023/01/31 08:24:12;;;;;;;36.60;9.07;;;5.10;99.90;;;;;;4994447;28;20038;-72
2023/01/31 08:26:38;;;;;;;39.65;9.70;;;5.10;99.90;;;;;;4984396;28;20109;-73
2023/01/31 08:29:04;;;;;;;40.10;10.48;;;5.20;99.90;;;;;;4984828;28;20037;-71
2023/01/31 08:31:29;;;;;;;32.45;9.05;;;5.10;99.90;;;;;;4992967;28;20043;-73
2023/01/31 08:33:56;;;;;;;33.45;9.90;;;5.10;99.90;;;;;;5001611;28;20038;-70
2023/01/31 08:36:28;;;;;;;43.08;10.32;;;5.10;99.90;;;;;;5004210;28;20038;-73
2023/01/31 08:38:56;;;;;;;44.40;9.77;;;5.10;99.90;;;;;;5002551;28;20069;-71
2023/01/31 08:41:23;;;;;;;36.45;9.48;;;5.10;99.90;;;;;;5004406;28;20030;-72
2023/01/31 08:43:50;;;;;;;38.67;9.95;;;5.10;99.90;;;;;;5003781;28;20085;-74
2023/01/31 08:46:16;;;;;;;44.25;11.52;;;5.10;99.90;;;;;;5003850;28;20081;-71
2023/01/31 08:48:42;;;;;;;28.10;9.20;;;5.10;99.90;;;;;;5003369;28;20535;-71
2023/01/31 08:51:10;;;;;;;42.13;10.52;;;5.20;99.90;;;;;;5004042;28;20033;-71
2023/01/31 08:53:43;;;;;;;48.40;11.45;;;5.20;99.90;;;;;;5002564;28;20034;-74
2023/01/31 08:56:09;;;;;;;34.22;10.88;;;5.20;99.90;;;;;;5003477;28;20046;-71
2023/01/31 08:58:37;;;;;;;37.28;10.10;;;5.20;99.90;;;;;;5003307;28;20077;-74
2023/01/31 09:01:12;;;;;;;47.25;11.88;;;5.20;99.90;;;;;;5001474;28;20041;-73
2023/01/31 09:03:37;;;;;;;40.33;11.35;;;5.20;99.90;;;;;;5001384;28;20066;-72
2023/01/31 09:06:06;;;;;;;38.78;11.52;;;5.30;99.90;;;;;;5003232;28;20034;-74
2023/01/31 09:08:32;;;;;;;43.13;12.10;;;5.30;99.90;;;;;;5003114;28;20027;-71
2023/01/31 09:11:02;;;;;;;41.15;12.32;;;5.30;99.90;;;;;;5001857;28;20034;-70
2023/01/31 09:13:29;;;;;;;59.17;12.23;;;5.30;99.90;;;;;;5007762;28;20048;-74
2023/01/31 09:16:10;;;;;;;35.05;11.68;;;5.30;99.90;;;;;;5006501;28;20038;-71
2023/01/31 09:18:37;;;;;;;35.28;11.13;;;5.40;99.90;;;;;;5005657;28;20030;-70
2023/01/31 09:21:12;;;;;;;43.47;12.40;;;5.40;99.90;;;;;;5004849;28;20061;-71
2023/01/31 09:23:38;;;;;;;54.58;13.07;;;5.50;99.90;;;;;;5009171;28;20407;-71
2023/01/31 09:26:04;;;;;;;44.95;11.85;;;5.40;99.90;;;;;;5019713;28;20419;-73
2023/01/31 09:28:30;;;;;;;49.20;13.43;;;5.40;99.90;;;;;;5001722;28;20052;-73
2023/01/31 09:31:02;;;;;;;42.00;12.45;;;5.40;99.90;;;;;;4994839;28;20026;-73
2023/01/31 09:33:31;;;;;;;47.70;13.60;;;5.40;99.90;;;;;;5006533;28;20030;-73
2023/01/31 09:36:00;;;;;;;42.15;12.75;;;5.50;99.90;;;;;;5007313;28;20023;-71
2023/01/31 09:38:26;;;;;;;46.85;12.20;;;5.30;99.90;;;;;;5007465;28;20054;-73
2023/01/31 09:40:53;;;;;;;54.78;15.52;;;5.30;99.90;;;;;;5004438;28;20027;-73
2023/01/31 09:43:24;;;;;;;44.50;13.15;;;5.40;99.90;;;;;;4996619;28;20049;-74
2023/01/31 09:45:53;;;;;;;54.35;14.52;;;5.30;99.90;;;;;;5001904;28;20126;-74
2023/01/31 09:48:23;;;;;;;43.58;14.30;;;5.40;99.90;;;;;;5006637;28;20065;-70
2023/01/31 09:50:55;;;;;;;50.63;13.40;;;5.40;99.90;;;;;;4992631;28;20039;-71
2023/01/31 09:53:23;;;;;;;45.53;14.43;;;5.50;99.90;;;;;;5003932;28;20316;-71
2023/01/31 09:55:57;;;;;;;41.75;12.85;;;5.40;99.90;;;;;;5004667;28;20070;-70
2023/01/31 09:58:29;;;;;;;49.15;14.43;;;5.40;99.90;;;;;;4997774;28;20038;-73
2023/01/31 10:01:17;;;;;;;49.65;13.35;;;5.40;99.90;;;;;;4992019;28;20784;-72
2023/01/31 10:04:06;;;;;;;35.85;12.70;;;5.40;99.90;;;;;;5021471;28;20045;-72
2023/01/31 10:06:42;;;;;;;46.65;13.07;;;5.40;99.90;;;;;;4999852;28;20053;-71
2023/01/31 10:09:20;;;;;;;37.80;13.43;;;5.50;99.90;;;;;;5004523;28;20030;-76
2023/01/31 10:11:51;;;;;;;41.28;12.98;;;5.40;99.90;;;;;;5005498;28;20118;-73
2023/01/31 10:14:42;;;;;;;45.03;12.73;;;5.50;99.90;;;;;;5006046;28;20037;-72
2023/01/31 10:17:23;;;;;;;39.42;12.02;;;5.50;99.90;;;;;;4990870;28;20436;-71
2023/01/31 10:19:56;;;;;;;27.25;11.10;;;5.50;99.90;;;;;;4997422;28;20058;-73
2023/01/31 10:22:36;;;;;;;51.55;13.10;;;5.50;99.90;;;;;;5006562;28;20033;-73
2023/01/31 10:25:25;;;;;;;44.20;13.32;;;5.60;99.90;;;;;;5005779;28;20119;-74
2023/01/31 10:28:03;;;;;;;34.42;12.18;;;5.60;99.90;;;;;;5004604;28;20537;-74
2023/01/31 10:30:50;;;;;;;45.60;12.48;;;5.60;99.90;;;;;;5002917;28;20033;-72
2023/01/31 10:33:41;;;;;;;39.95;11.45;;;5.60;99.90;;;;;;4999832;28;20033;-72
2023/01/31 10:36:33;;;;;;;49.42;13.10;;;5.60;99.90;;;;;;5001643;28;20030;-76
2023/01/31 10:39:09;;;;;;;38.60;11.00;;;5.60;99.90;;;;;;5000120;28;20129;-73
2023/01/31 10:42:09;;;;;;;39.83;11.27;;;5.60;99.90;;;;;;4994977;28;20022;-73
2023/01/31 10:45:05;;;;;;;35.15;10.40;;;5.60;99.90;;;;;;4995787;28;20491;-74
2023/01/31 10:47:37;;;;;;;38.92;11.73;;;5.70;99.90;;;;;;5001173;28;20041;-72
2023/01/31 10:50:41;;;;;;;41.85;10.20;;;5.90;99.90;;;;;;5003202;28;20460;-73
2023/01/31 10:53:20;;;;;;;31.08;9.93;;;5.70;99.90;;;;;;5004546;28;20396;-71
2023/01/31 10:55:45;;;;;;;35.35;9.85;;;5.80;99.90;;;;;;5000926;28;20476;-72
2023/01/31 10:58:16;;;;;;;41.10;9.70;;;5.80;99.90;;;;;;4998409;28;20042;-72
2023/01/31 11:00:42;;;;;;;35.13;9.27;;;5.80;99.90;;;;;;4998976;28;20049;-74
2023/01/31 11:03:11;;;;;;;32.40;9.40;;;5.80;99.90;;;;;;4995000;28;20046;-76
2023/01/31 11:05:46;;;;;;;31.55;9.90;;;5.90;99.90;;;;;;4995773;28;20045;-74
2023/01/31 11:08:30;;;;;;;38.20;8.95;;;5.90;99.90;;;;;;5003595;28;20023;-73
2023/01/31 11:10:57;;;;;;;;;;;5.80;99.90;;;;;;5005583;28;20034;-72
2023/01/31 11:13:32;;;;;;;29.88;9.52;;;6.00;99.90;;;;;;4992619;28;19918;-74
2023/01/31 11:16:00;;;;;;;36.40;8.90;;;6.00;99.90;;;;;;5004692;28;20038;-73
2023/01/31 11:18:30;;;;;;;33.38;9.38;;;6.00;99.90;;;;;;5001644;28;20022;-75
2023/01/31 11:20:58;;;;;;;40.10;9.85;;;6.00;99.90;;;;;;5009004;28;20038;-73
2023/01/31 11:23:27;;;;;;;29.90;8.43;;;6.00;99.90;;;;;;5017234;28;20034;-72
2023/01/31 11:25:54;;;;;;;30.67;9.30;;;6.00;99.90;;;;;;5004467;28;20018;-75
2023/01/31 11:28:35;;;;;;;36.40;8.98;;;6.00;99.90;;;;;;4991217;28;20038;-72
2023/01/31 11:31:05;;;;;;;36.67;9.57;;;6.10;99.90;;;;;;4988217;28;20126;-72
2023/01/31 11:33:42;;;;;;;34.00;10.18;;;6.10;99.90;;;;;;5003282;28;20061;-72
2023/01/31 11:36:11;;;;;;;26.35;8.75;;;6.10;99.90;;;;;;5006201;28;20098;-72
2023/01/31 11:38:36;;;;;;;39.42;10.30;;;6.10;99.90;;;;;;4991244;28;20049;-71
2023/01/31 11:41:26;;;;;;;23.48;8.98;;;6.20;99.90;;;;;;4995946;28;20026;-72
2023/01/31 11:44:15;;;;;;;31.92;9.95;;;6.20;99.90;;;;;;4992679;28;20058;-73
2023/01/31 11:46:54;;;;;;;31.27;10.50;;;6.20;99.90;;;;;;5001969;28;20034;-72
2023/01/31 11:49:34;;;;;;;24.20;9.45;;;6.20;99.90;;;;;;4990969;28;20037;-72
2023/01/31 11:52:20;;;;;;;25.58;8.23;;;6.20;99.90;;;;;;4990756;28;20045;-73
2023/01/31 11:54:52;;;;;;;19.83;6.68;;;6.20;99.90;;;;;;4993439;28;20034;-73
2023/01/31 11:57:24;;;;;;;23.42;7.68;;;6.20;99.90;;;;;;5002936;28;20050;-73
2023/01/31 11:59:53;;;;;;;26.73;8.65;;;6.10;99.90;;;;;;5001802;28;20932;-70
2023/01/31 12:02:30;;;;;;;22.75;6.65;;;6.10;99.90;;;;;;5003453;28;20591;-73
2023/01/31 12:04:57;;;;;;;16.85;7.38;;;6.10;99.90;;;;;;4993916;28;20138;-74
2023/01/31 12:07:29;;;;;;;15.63;6.60;;;6.10;99.90;;;;;;5004104;28;20030;-72
2023/01/31 12:09:55;;;;;;;19.73;8.20;;;6.10;99.90;;;;;;5004208;28;20037;-74
2023/01/31 12:12:32;;;;;;;17.13;6.57;;;6.10;99.90;;;;;;4996404;28;20034;-72
2023/01/31 12:15:00;;;;;;;14.88;6.05;;;6.20;99.90;;;;;;5003783;28;20030;-72
2023/01/31 12:17:30;;;;;;;14.27;6.28;;;6.20;99.90;;;;;;5001512;28;20193;-73
2023/01/31 12:20:20;;;;;;;19.33;6.60;;;6.20;99.90;;;;;;5000532;28;20034;-72
2023/01/31 12:23:01;;;;;;;17.58;6.28;;;6.20;99.90;;;;;;5003698;28;20058;-73
2023/01/31 12:25:45;;;;;;;15.68;6.15;;;6.30;99.90;;;;;;5002541;28;20042;-71
2023/01/31 12:28:27;;;;;;;16.20;6.22;;;6.30;99.90;;;;;;4992408;28;20054;-73
2023/01/31 12:31:03;;;;;;;18.67;6.38;;;6.30;99.90;;;;;;5003570;28;20038;-74
2023/01/31 12:33:34;;;;;;;14.95;5.63;;;6.30;99.90;;;;;;5002276;28;20053;-73
2023/01/31 12:36:06;;;;;;;14.98;6.47;;;6.20;99.90;;;;;;5002519;28;20073;-74
2023/01/31 12:38:39;;;;;;;16.23;5.78;;;6.30;99.90;;;;;;4999308;28;20030;-71
2023/01/31 12:41:39;;;;;;;19.90;8.65;;;6.30;99.90;;;;;;5002582;28;20056;-73
2023/01/31 12:44:26;;;;;;;17.33;6.93;;;6.30;99.90;;;;;;5001931;28;20053;-75
2023/01/31 12:47:32;;;;;;;14.27;6.10;;;6.30;99.90;;;;;;5002309;28;20627;-73
2023/01/31 12:50:16;;;;;;;12.90;5.10;;;6.40;99.90;;;;;;5006975;28;20070;-73
2023/01/31 12:53:02;;;;;;;;;;;6.40;99.90;;;;;;4993054;28;20030;-73
2023/01/31 12:56:05;;;;;;;14.27;5.53;;;6.40;99.90;;;;;;5002907;28;19910;-73
2023/01/31 12:59:07;;;;;;;14.00;5.57;;;6.40;99.90;;;;;;5010507;28;20046;-72
2023/01/31 13:01:40;;;;;;;14.38;5.38;;;6.40;99.90;;;;;;5002093;28;20045;-73
2023/01/31 13:04:34;;;;;;;16.35;7.82;;;6.40;99.90;;;;;;5001769;28;20062;-73
2023/01/31 13:07:05;;;;;;;16.77;6.75;;;6.50;99.90;;;;;;5000807;28;20097;-73
2023/01/31 13:09:33;;;;;;;11.93;5.22;;;6.50;99.90;;;;;;5003454;28;20041;-73